MMML

General Rodolfo Sánchez Taboada International Airport

Mexicali, Mexico
TAF MMML 241708Z 2418/2518 26005KT P6SM SKC FM250300 00000KT P6SM SKC FM251200 12005KT P6SM SCT200
Issued Valid From Valid To
Sep-24 @ 17:08 UTC
(7 hours ago)
Sep-24 @ 18:00 UTC
(6 hours ago)
Sep-25 @ 18:00 UTC
(in 18 hours)
Sep-24 @ 18:00 to Sep-25 @ 03:00
TAF MMML 241708Z 2418/2518 26005KT P6SM SKC
Wind Visibility Clouds
260° at 5 knots Greater than 6 miles
  • Clear skies
From Sep-25 @ 03:00 to Sep-25 @ 12:00
FM250300 00000KT P6SM SKC
Visibility Clouds
Greater than 6 miles
  • Clear skies
From Sep-25 @ 12:00 to Sep-25 @ 18:00
FM251200 12005KT P6SM SCT200
Wind Visibility Clouds
120° at 5 knots Greater than 6 miles
  • Scattered at 20,000' AGL
TAF MMML 241708Z 2418/2518 26005KT P6SM SKC FM250300 00000KT P6SM SKC FM251200 12005KT P6SM SCT200
Issued Sep-24 @ 17:08 UTC
(7 hours ago)
Valid From Sep-24 @ 18:00 UTC
(6 hours ago)
Valid To Sep-25 @ 18:00 UTC
(in 18 hours)
Sep-24 @ 18:00 - Sep-25 @ 03:00
Wind Visibility
260° at 5 knots Greater than 6 miles
Clouds
  • Clear skies
From Sep-25 @ 03:00 - Sep-25 @ 12:00
Clouds
  • Clear skies
From Sep-25 @ 12:00 - Sep-25 @ 18:00
Wind Visibility
120° at 5 knots Greater than 6 miles
Clouds
  • Scattered at 20,000' AGL